<?xml version="1.0" encoding="UTF-8" standalone="no" ?>
<gpx xmlns="http://www.topografix.com/GPX/1/1" xmlns:xsi="http://www.w3.org/2001/XMLSchema-instance" xsi:schemaLocation="http://www.topografix.com/GPX/1/1 http://www.topografix.com/GPX/1/1/gpx.xsd" version="1.1" creator="VisuGPX - https://www.visugpx.com">
  <metadata>
    <name>TPS 2017: la trace!</name>
    <desc><![CDATA[La traversée des pyrénées à ski édition 2017. Trace étape par étape (jour par jour).]]></desc>
  </metadata>
  <trk>
    <name><![CDATA[R7-02b]]></name>
    <trkseg>
      <trkpt lat="42.81679" lon="-0.28776">
        <ele>2134.7</ele>
        <time>2017-03-21T10:46:01Z</time>
      </trkpt>
      <trkpt lat="42.81679" lon="-0.28765">
        <ele>2135.7</ele>
        <time>2017-03-21T10:46:27Z</time>
      </trkpt>
      <trkpt lat="42.81678" lon="-0.28766">
        <ele>2200.1</ele>
        <time>2017-03-21T10:46:32Z</time>
      </trkpt>
      <trkpt lat="42.81678" lon="-0.28766">
        <ele>2200.1</ele>
        <time>2017-03-21T10:46:33Z</time>
      </trkpt>
      <trkpt lat="42.81682" lon="-0.28768">
        <ele>2195.8</ele>
        <time>2017-03-21T10:47:05Z</time>
      </trkpt>
      <trkpt lat="42.81684" lon="-0.28788">
        <ele>2200.6</ele>
        <time>2017-03-21T11:24:52Z</time>
      </trkpt>
      <trkpt lat="42.81686" lon="-0.28769">
        <ele>2196.8</ele>
        <time>2017-03-21T11:25:06Z</time>
      </trkpt>
      <trkpt lat="42.81688" lon="-0.2877">
        <ele>2192.4</ele>
        <time>2017-03-21T11:25:08Z</time>
      </trkpt>
      <trkpt lat="42.81688" lon="-0.28771">
        <ele>2189.1</ele>
        <time>2017-03-21T11:25:10Z</time>
      </trkpt>
      <trkpt lat="42.81687" lon="-0.28771">
        <ele>2185.2</ele>
        <time>2017-03-21T11:25:12Z</time>
      </trkpt>
      <trkpt lat="42.81687" lon="-0.28771">
        <ele>2181.4</ele>
        <time>2017-03-21T11:25:14Z</time>
      </trkpt>
      <trkpt lat="42.81687" lon="-0.28771">
        <ele>2181.4</ele>
        <time>2017-03-21T11:25:15Z</time>
      </trkpt>
      <trkpt lat="42.81687" lon="-0.28771">
        <ele>2177.5</ele>
        <time>2017-03-21T11:25:17Z</time>
      </trkpt>
      <trkpt lat="42.81687" lon="-0.28772">
        <ele>2174.2</ele>
        <time>2017-03-21T11:25:19Z</time>
      </trkpt>
      <trkpt lat="42.81687" lon="-0.28772">
        <ele>2176.1</ele>
        <time>2017-03-21T11:25:20Z</time>
      </trkpt>
      <trkpt lat="42.81686" lon="-0.28772">
        <ele>2173.2</ele>
        <time>2017-03-21T11:25:22Z</time>
      </trkpt>
      <trkpt lat="42.81686" lon="-0.28773">
        <ele>2169.8</ele>
        <time>2017-03-21T11:25:25Z</time>
      </trkpt>
      <trkpt lat="42.81686" lon="-0.28773">
        <ele>2166.5</ele>
        <time>2017-03-21T11:25:28Z</time>
      </trkpt>
      <trkpt lat="42.81686" lon="-0.28773">
        <ele>2164.1</ele>
        <time>2017-03-21T11:25:31Z</time>
      </trkpt>
      <trkpt lat="42.81683" lon="-0.28778">
        <ele>2160.2</ele>
        <time>2017-03-21T11:25:39Z</time>
      </trkpt>
      <trkpt lat="42.81682" lon="-0.28778">
        <ele>2159.7</ele>
        <time>2017-03-21T11:25:40Z</time>
      </trkpt>
      <trkpt lat="42.81681" lon="-0.28779">
        <ele>2155.9</ele>
        <time>2017-03-21T11:25:45Z</time>
      </trkpt>
      <trkpt lat="42.81681" lon="-0.28781">
        <ele>2154</ele>
        <time>2017-03-21T11:25:48Z</time>
      </trkpt>
      <trkpt lat="42.81681" lon="-0.28781">
        <ele>2150.6</ele>
        <time>2017-03-21T11:25:55Z</time>
      </trkpt>
      <trkpt lat="42.81685" lon="-0.28784">
        <ele>2147.2</ele>
        <time>2017-03-21T11:26:12Z</time>
      </trkpt>
      <trkpt lat="42.81687" lon="-0.28785">
        <ele>2145.8</ele>
        <time>2017-03-21T11:26:29Z</time>
      </trkpt>
      <trkpt lat="42.81688" lon="-0.28788">
        <ele>2146.8</ele>
        <time>2017-03-21T11:26:45Z</time>
      </trkpt>
      <trkpt lat="42.81688" lon="-0.28786">
        <ele>2146.8</ele>
        <time>2017-03-21T11:27:07Z</time>
      </trkpt>
      <trkpt lat="42.8169" lon="-0.28786">
        <ele>2147.7</ele>
        <time>2017-03-21T11:27:29Z</time>
      </trkpt>
      <trkpt lat="42.81691" lon="-0.28787">
        <ele>2147.2</ele>
        <time>2017-03-21T11:27:30Z</time>
      </trkpt>
      <trkpt lat="42.81695" lon="-0.28789">
        <ele>2147.7</ele>
        <time>2017-03-21T11:27:35Z</time>
      </trkpt>
      <trkpt lat="42.81701" lon="-0.288">
        <ele>2146.3</ele>
        <time>2017-03-21T11:27:44Z</time>
      </trkpt>
      <trkpt lat="42.81708" lon="-0.28811">
        <ele>2147.2</ele>
        <time>2017-03-21T11:28:01Z</time>
      </trkpt>
      <trkpt lat="42.81708" lon="-0.2881">
        <ele>2147.7</ele>
        <time>2017-03-21T11:28:34Z</time>
      </trkpt>
      <trkpt lat="42.81707" lon="-0.2881">
        <ele>2147.2</ele>
        <time>2017-03-21T11:28:58Z</time>
      </trkpt>
      <trkpt lat="42.8171" lon="-0.28812">
        <ele>2147.7</ele>
        <time>2017-03-21T11:29:01Z</time>
      </trkpt>
      <trkpt lat="42.81722" lon="-0.28804">
        <ele>2151.6</ele>
        <time>2017-03-21T11:29:16Z</time>
      </trkpt>
      <trkpt lat="42.81732" lon="-0.28793">
        <ele>2153.5</ele>
        <time>2017-03-21T11:29:32Z</time>
      </trkpt>
      <trkpt lat="42.81733" lon="-0.28787">
        <ele>2154.5</ele>
        <time>2017-03-21T11:29:38Z</time>
      </trkpt>
      <trkpt lat="42.81741" lon="-0.28771">
        <ele>2153.5</ele>
        <time>2017-03-21T11:29:48Z</time>
      </trkpt>
      <trkpt lat="42.81749" lon="-0.28765">
        <ele>2156.4</ele>
        <time>2017-03-21T11:30:03Z</time>
      </trkpt>
      <trkpt lat="42.81761" lon="-0.28757">
        <ele>2159.3</ele>
        <time>2017-03-21T11:30:21Z</time>
      </trkpt>
      <trkpt lat="42.81768" lon="-0.28747">
        <ele>2161.7</ele>
        <time>2017-03-21T11:30:37Z</time>
      </trkpt>
      <trkpt lat="42.81778" lon="-0.28745">
        <ele>2165.5</ele>
        <time>2017-03-21T11:30:51Z</time>
      </trkpt>
      <trkpt lat="42.81779" lon="-0.28745">
        <ele>2165.5</ele>
        <time>2017-03-21T11:30:52Z</time>
      </trkpt>
      <trkpt lat="42.81789" lon="-0.28748">
        <ele>2168.4</ele>
        <time>2017-03-21T11:31:09Z</time>
      </trkpt>
      <trkpt lat="42.81801" lon="-0.28748">
        <ele>2170.8</ele>
        <time>2017-03-21T11:31:25Z</time>
      </trkpt>
      <trkpt lat="42.81809" lon="-0.28747">
        <ele>2174.2</ele>
        <time>2017-03-21T11:31:42Z</time>
      </trkpt>
      <trkpt lat="42.81815" lon="-0.2874">
        <ele>2176.1</ele>
        <time>2017-03-21T11:31:57Z</time>
      </trkpt>
      <trkpt lat="42.81817" lon="-0.28736">
        <ele>2178</ele>
        <time>2017-03-21T11:32:13Z</time>
      </trkpt>
      <trkpt lat="42.81824" lon="-0.28731">
        <ele>2180.9</ele>
        <time>2017-03-21T11:32:26Z</time>
      </trkpt>
      <trkpt lat="42.81831" lon="-0.2873">
        <ele>2183.8</ele>
        <time>2017-03-21T11:32:39Z</time>
      </trkpt>
      <trkpt lat="42.81836" lon="-0.28727">
        <ele>2186.2</ele>
        <time>2017-03-21T11:32:55Z</time>
      </trkpt>
      <trkpt lat="42.81853" lon="-0.28709">
        <ele>2192.4</ele>
        <time>2017-03-21T11:33:31Z</time>
      </trkpt>
      <trkpt lat="42.81863" lon="-0.28685">
        <ele>2198.7</ele>
        <time>2017-03-21T11:34:06Z</time>
      </trkpt>
      <trkpt lat="42.81868" lon="-0.28676">
        <ele>2202</ele>
        <time>2017-03-21T11:34:22Z</time>
      </trkpt>
      <trkpt lat="42.81878" lon="-0.2867">
        <ele>2205.4</ele>
        <time>2017-03-21T11:34:45Z</time>
      </trkpt>
      <trkpt lat="42.81885" lon="-0.28662">
        <ele>2209.3</ele>
        <time>2017-03-21T11:35:06Z</time>
      </trkpt>
      <trkpt lat="42.81885" lon="-0.28662">
        <ele>2209.3</ele>
        <time>2017-03-21T11:35:07Z</time>
      </trkpt>
      <trkpt lat="42.8189" lon="-0.28664">
        <ele>2211.7</ele>
        <time>2017-03-21T11:35:21Z</time>
      </trkpt>
      <trkpt lat="42.81897" lon="-0.28652">
        <ele>2215</ele>
        <time>2017-03-21T11:35:42Z</time>
      </trkpt>
      <trkpt lat="42.81902" lon="-0.28644">
        <ele>2217.4</ele>
        <time>2017-03-21T11:36:00Z</time>
      </trkpt>
      <trkpt lat="42.81906" lon="-0.28652">
        <ele>2220.8</ele>
        <time>2017-03-21T11:36:16Z</time>
      </trkpt>
      <trkpt lat="42.8191" lon="-0.28654">
        <ele>2222.7</ele>
        <time>2017-03-21T11:36:31Z</time>
      </trkpt>
      <trkpt lat="42.81916" lon="-0.28644">
        <ele>2225.6</ele>
        <time>2017-03-21T11:36:49Z</time>
      </trkpt>
      <trkpt lat="42.81918" lon="-0.28636">
        <ele>2228</ele>
        <time>2017-03-21T11:37:06Z</time>
      </trkpt>
      <trkpt lat="42.81921" lon="-0.28626">
        <ele>2230.4</ele>
        <time>2017-03-21T11:37:23Z</time>
      </trkpt>
      <trkpt lat="42.81924" lon="-0.28616">
        <ele>2232.8</ele>
        <time>2017-03-21T11:37:39Z</time>
      </trkpt>
      <trkpt lat="42.81927" lon="-0.28607">
        <ele>2235.7</ele>
        <time>2017-03-21T11:37:55Z</time>
      </trkpt>
      <trkpt lat="42.8193" lon="-0.28597">
        <ele>2238.6</ele>
        <time>2017-03-21T11:38:13Z</time>
      </trkpt>
      <trkpt lat="42.81934" lon="-0.28585">
        <ele>2241.5</ele>
        <time>2017-03-21T11:38:31Z</time>
      </trkpt>
      <trkpt lat="42.81937" lon="-0.28575">
        <ele>2243.9</ele>
        <time>2017-03-21T11:38:47Z</time>
      </trkpt>
      <trkpt lat="42.81941" lon="-0.28566">
        <ele>2246.3</ele>
        <time>2017-03-21T11:39:03Z</time>
      </trkpt>
      <trkpt lat="42.81943" lon="-0.28558">
        <ele>2249.6</ele>
        <time>2017-03-21T11:39:16Z</time>
      </trkpt>
      <trkpt lat="42.81947" lon="-0.28553">
        <ele>2253</ele>
        <time>2017-03-21T11:39:31Z</time>
      </trkpt>
      <trkpt lat="42.81953" lon="-0.28548">
        <ele>2255.9</ele>
        <time>2017-03-21T11:39:46Z</time>
      </trkpt>
      <trkpt lat="42.81957" lon="-0.28542">
        <ele>2258.8</ele>
        <time>2017-03-21T11:39:59Z</time>
      </trkpt>
      <trkpt lat="42.81963" lon="-0.28534">
        <ele>2262.1</ele>
        <time>2017-03-21T11:40:17Z</time>
      </trkpt>
      <trkpt lat="42.8197" lon="-0.28521">
        <ele>2265</ele>
        <time>2017-03-21T11:40:35Z</time>
      </trkpt>
      <trkpt lat="42.81979" lon="-0.28511">
        <ele>2266.9</ele>
        <time>2017-03-21T11:40:51Z</time>
      </trkpt>
      <trkpt lat="42.81987" lon="-0.28505">
        <ele>2270.3</ele>
        <time>2017-03-21T11:41:06Z</time>
      </trkpt>
      <trkpt lat="42.81996" lon="-0.28496">
        <ele>2272.2</ele>
        <time>2017-03-21T11:41:24Z</time>
      </trkpt>
      <trkpt lat="42.82003" lon="-0.28492">
        <ele>2274.6</ele>
        <time>2017-03-21T11:41:38Z</time>
      </trkpt>
      <trkpt lat="42.8201" lon="-0.28487">
        <ele>2278.5</ele>
        <time>2017-03-21T11:41:55Z</time>
      </trkpt>
      <trkpt lat="42.82014" lon="-0.28479">
        <ele>2281.4</ele>
        <time>2017-03-21T11:42:07Z</time>
      </trkpt>
      <trkpt lat="42.82017" lon="-0.28473">
        <ele>2283.8</ele>
        <time>2017-03-21T11:42:16Z</time>
      </trkpt>
      <trkpt lat="42.82022" lon="-0.28465">
        <ele>2285.2</ele>
        <time>2017-03-21T11:42:27Z</time>
      </trkpt>
      <trkpt lat="42.8203" lon="-0.28456">
        <ele>2286.6</ele>
        <time>2017-03-21T11:42:41Z</time>
      </trkpt>
      <trkpt lat="42.82039" lon="-0.28447">
        <ele>2287.6</ele>
        <time>2017-03-21T11:42:55Z</time>
      </trkpt>
      <trkpt lat="42.82068" lon="-0.28438">
        <ele>2288.6</ele>
        <time>2017-03-21T11:43:23Z</time>
      </trkpt>
      <trkpt lat="42.82071" lon="-0.28437">
        <ele>2289</ele>
        <time>2017-03-21T11:43:26Z</time>
      </trkpt>
      <trkpt lat="42.82074" lon="-0.28436">
        <ele>2288.6</ele>
        <time>2017-03-21T11:43:29Z</time>
      </trkpt>
      <trkpt lat="42.82077" lon="-0.28436">
        <ele>2288.6</ele>
        <time>2017-03-21T11:43:31Z</time>
      </trkpt>
      <trkpt lat="42.82094" lon="-0.2843">
        <ele>2291</ele>
        <time>2017-03-21T11:43:49Z</time>
      </trkpt>
      <trkpt lat="42.821" lon="-0.28428">
        <ele>2291.9</ele>
        <time>2017-03-21T11:43:56Z</time>
      </trkpt>
      <trkpt lat="42.82114" lon="-0.28433">
        <ele>2293.8</ele>
        <time>2017-03-21T11:44:14Z</time>
      </trkpt>
      <trkpt lat="42.82127" lon="-0.28433">
        <ele>2295.8</ele>
        <time>2017-03-21T11:44:29Z</time>
      </trkpt>
      <trkpt lat="42.82134" lon="-0.28431">
        <ele>2297.7</ele>
        <time>2017-03-21T11:44:45Z</time>
      </trkpt>
      <trkpt lat="42.82136" lon="-0.28434">
        <ele>2297.7</ele>
        <time>2017-03-21T11:45:07Z</time>
      </trkpt>
      <trkpt lat="42.8214" lon="-0.28438">
        <ele>2299.6</ele>
        <time>2017-03-21T11:45:27Z</time>
      </trkpt>
      <trkpt lat="42.82137" lon="-0.28447">
        <ele>2301.1</ele>
        <time>2017-03-21T11:45:42Z</time>
      </trkpt>
      <trkpt lat="42.82134" lon="-0.28456">
        <ele>2303.9</ele>
        <time>2017-03-21T11:45:59Z</time>
      </trkpt>
      <trkpt lat="42.82127" lon="-0.28465">
        <ele>2306.8</ele>
        <time>2017-03-21T11:46:18Z</time>
      </trkpt>
      <trkpt lat="42.82124" lon="-0.28472">
        <ele>2308.7</ele>
        <time>2017-03-21T11:46:29Z</time>
      </trkpt>
      <trkpt lat="42.82133" lon="-0.2848">
        <ele>2311.2</ele>
        <time>2017-03-21T11:46:48Z</time>
      </trkpt>
      <trkpt lat="42.82141" lon="-0.28484">
        <ele>2314</ele>
        <time>2017-03-21T11:47:05Z</time>
      </trkpt>
      <trkpt lat="42.82149" lon="-0.28484">
        <ele>2315.5</ele>
        <time>2017-03-21T11:47:23Z</time>
      </trkpt>
      <trkpt lat="42.82155" lon="-0.28488">
        <ele>2318.4</ele>
        <time>2017-03-21T11:47:43Z</time>
      </trkpt>
      <trkpt lat="42.82152" lon="-0.28492">
        <ele>2320.8</ele>
        <time>2017-03-21T11:47:59Z</time>
      </trkpt>
      <trkpt lat="42.82147" lon="-0.28498">
        <ele>2321.7</ele>
        <time>2017-03-21T11:48:14Z</time>
      </trkpt>
      <trkpt lat="42.82144" lon="-0.28506">
        <ele>2323.2</ele>
        <time>2017-03-21T11:48:30Z</time>
      </trkpt>
      <trkpt lat="42.82153" lon="-0.28507">
        <ele>2326.1</ele>
        <time>2017-03-21T11:48:45Z</time>
      </trkpt>
      <trkpt lat="42.82163" lon="-0.28505">
        <ele>2328.9</ele>
        <time>2017-03-21T11:49:04Z</time>
      </trkpt>
      <trkpt lat="42.82172" lon="-0.28503">
        <ele>2330.4</ele>
        <time>2017-03-21T11:49:18Z</time>
      </trkpt>
      <trkpt lat="42.82181" lon="-0.28502">
        <ele>2332.8</ele>
        <time>2017-03-21T11:49:33Z</time>
      </trkpt>
      <trkpt lat="42.8219" lon="-0.28503">
        <ele>2334.7</ele>
        <time>2017-03-21T11:49:48Z</time>
      </trkpt>
      <trkpt lat="42.82195" lon="-0.28502">
        <ele>2337.6</ele>
        <time>2017-03-21T11:49:58Z</time>
      </trkpt>
      <trkpt lat="42.82192" lon="-0.28508">
        <ele>2339</ele>
        <time>2017-03-21T11:50:10Z</time>
      </trkpt>
      <trkpt lat="42.82193" lon="-0.28516">
        <ele>2340</ele>
        <time>2017-03-21T11:50:22Z</time>
      </trkpt>
      <trkpt lat="42.82195" lon="-0.28522">
        <ele>2343.4</ele>
        <time>2017-03-21T11:50:38Z</time>
      </trkpt>
      <trkpt lat="42.82203" lon="-0.2852">
        <ele>2344.8</ele>
        <time>2017-03-21T11:50:51Z</time>
      </trkpt>
      <trkpt lat="42.82204" lon="-0.28525">
        <ele>2347.2</ele>
        <time>2017-03-21T11:51:06Z</time>
      </trkpt>
      <trkpt lat="42.82203" lon="-0.28535">
        <ele>2349.6</ele>
        <time>2017-03-21T11:51:22Z</time>
      </trkpt>
      <trkpt lat="42.82207" lon="-0.28535">
        <ele>2350.6</ele>
        <time>2017-03-21T11:51:36Z</time>
      </trkpt>
      <trkpt lat="42.82216" lon="-0.28531">
        <ele>2353.4</ele>
        <time>2017-03-21T11:51:56Z</time>
      </trkpt>
      <trkpt lat="42.82221" lon="-0.2853">
        <ele>2354.9</ele>
        <time>2017-03-21T11:52:12Z</time>
      </trkpt>
      <trkpt lat="42.82219" lon="-0.28531">
        <ele>2353.4</ele>
        <time>2017-03-21T11:52:34Z</time>
      </trkpt>
      <trkpt lat="42.82216" lon="-0.28529">
        <ele>2355.4</ele>
        <time>2017-03-21T11:53:04Z</time>
      </trkpt>
      <trkpt lat="42.82223" lon="-0.28525">
        <ele>2355.9</ele>
        <time>2017-03-21T11:53:23Z</time>
      </trkpt>
      <trkpt lat="42.82228" lon="-0.2853">
        <ele>2358.7</ele>
        <time>2017-03-21T11:53:36Z</time>
      </trkpt>
      <trkpt lat="42.82228" lon="-0.28541">
        <ele>2361.6</ele>
        <time>2017-03-21T11:53:53Z</time>
      </trkpt>
      <trkpt lat="42.82228" lon="-0.28545">
        <ele>2363.1</ele>
        <time>2017-03-21T11:53:59Z</time>
      </trkpt>
      <trkpt lat="42.82232" lon="-0.28551">
        <ele>2364</ele>
        <time>2017-03-21T11:54:15Z</time>
      </trkpt>
      <trkpt lat="42.8224" lon="-0.28547">
        <ele>2366.4</ele>
        <time>2017-03-21T11:54:30Z</time>
      </trkpt>
      <trkpt lat="42.82247" lon="-0.28542">
        <ele>2368.8</ele>
        <time>2017-03-21T11:54:45Z</time>
      </trkpt>
      <trkpt lat="42.82251" lon="-0.28538">
        <ele>2369.3</ele>
        <time>2017-03-21T11:55:00Z</time>
      </trkpt>
      <trkpt lat="42.82252" lon="-0.28537">
        <ele>2369.8</ele>
        <time>2017-03-21T11:55:22Z</time>
      </trkpt>
      <trkpt lat="42.82258" lon="-0.28533">
        <ele>2372.2</ele>
        <time>2017-03-21T11:55:36Z</time>
      </trkpt>
      <trkpt lat="42.82262" lon="-0.28527">
        <ele>2374.1</ele>
        <time>2017-03-21T11:55:56Z</time>
      </trkpt>
      <trkpt lat="42.82262" lon="-0.28526">
        <ele>2373.2</ele>
        <time>2017-03-21T11:56:21Z</time>
      </trkpt>
      <trkpt lat="42.8226" lon="-0.28534">
        <ele>2375.1</ele>
        <time>2017-03-21T11:56:34Z</time>
      </trkpt>
      <trkpt lat="42.82255" lon="-0.28546">
        <ele>2375.6</ele>
        <time>2017-03-21T11:56:50Z</time>
      </trkpt>
      <trkpt lat="42.82252" lon="-0.28557">
        <ele>2377</ele>
        <time>2017-03-21T11:57:05Z</time>
      </trkpt>
      <trkpt lat="42.82252" lon="-0.28566">
        <ele>2378.4</ele>
        <time>2017-03-21T11:57:18Z</time>
      </trkpt>
      <trkpt lat="42.82253" lon="-0.28571">
        <ele>2379.4</ele>
        <time>2017-03-21T11:57:33Z</time>
      </trkpt>
      <trkpt lat="42.82253" lon="-0.28582">
        <ele>2381.8</ele>
        <time>2017-03-21T11:57:49Z</time>
      </trkpt>
      <trkpt lat="42.82253" lon="-0.2859">
        <ele>2384.7</ele>
        <time>2017-03-21T11:58:05Z</time>
      </trkpt>
      <trkpt lat="42.82252" lon="-0.28597">
        <ele>2386.1</ele>
        <time>2017-03-21T11:58:28Z</time>
      </trkpt>
      <trkpt lat="42.82252" lon="-0.28598">
        <ele>2387.1</ele>
        <time>2017-03-21T11:58:49Z</time>
      </trkpt>
      <trkpt lat="42.82257" lon="-0.28595">
        <ele>2387.6</ele>
        <time>2017-03-21T11:59:07Z</time>
      </trkpt>
      <trkpt lat="42.82264" lon="-0.28586">
        <ele>2390.5</ele>
        <time>2017-03-21T11:59:35Z</time>
      </trkpt>
      <trkpt lat="42.82267" lon="-0.28583">
        <ele>2391.4</ele>
        <time>2017-03-21T11:59:56Z</time>
      </trkpt>
      <trkpt lat="42.82269" lon="-0.2858">
        <ele>2392.9</ele>
        <time>2017-03-21T12:00:14Z</time>
      </trkpt>
      <trkpt lat="42.82272" lon="-0.28577">
        <ele>2393.3</ele>
        <time>2017-03-21T12:00:39Z</time>
      </trkpt>
      <trkpt lat="42.82276" lon="-0.28571">
        <ele>2393.8</ele>
        <time>2017-03-21T12:00:58Z</time>
      </trkpt>
      <trkpt lat="42.82278" lon="-0.28565">
        <ele>2395.7</ele>
        <time>2017-03-21T12:01:14Z</time>
      </trkpt>
      <trkpt lat="42.82282" lon="-0.2856">
        <ele>2397.2</ele>
        <time>2017-03-21T12:01:30Z</time>
      </trkpt>
      <trkpt lat="42.82288" lon="-0.28552">
        <ele>2400.1</ele>
        <time>2017-03-21T12:01:56Z</time>
      </trkpt>
      <trkpt lat="42.82291" lon="-0.28545">
        <ele>2401</ele>
        <time>2017-03-21T12:02:14Z</time>
      </trkpt>
      <trkpt lat="42.82297" lon="-0.28539">
        <ele>2402</ele>
        <time>2017-03-21T12:02:30Z</time>
      </trkpt>
      <trkpt lat="42.82299" lon="-0.28531">
        <ele>2403.9</ele>
        <time>2017-03-21T12:02:48Z</time>
      </trkpt>
      <trkpt lat="42.82304" lon="-0.28523">
        <ele>2405.8</ele>
        <time>2017-03-21T12:03:08Z</time>
      </trkpt>
      <trkpt lat="42.82313" lon="-0.28514">
        <ele>2408.2</ele>
        <time>2017-03-21T12:03:27Z</time>
      </trkpt>
      <trkpt lat="42.82314" lon="-0.28506">
        <ele>2410.6</ele>
        <time>2017-03-21T12:03:44Z</time>
      </trkpt>
      <trkpt lat="42.82318" lon="-0.28498">
        <ele>2411.6</ele>
        <time>2017-03-21T12:04:03Z</time>
      </trkpt>
      <trkpt lat="42.82326" lon="-0.28486">
        <ele>2416.9</ele>
        <time>2017-03-21T12:04:33Z</time>
      </trkpt>
      <trkpt lat="42.82329" lon="-0.28481">
        <ele>2419.3</ele>
        <time>2017-03-21T12:04:45Z</time>
      </trkpt>
      <trkpt lat="42.82336" lon="-0.28474">
        <ele>2421.2</ele>
        <time>2017-03-21T12:05:03Z</time>
      </trkpt>
      <trkpt lat="42.82339" lon="-0.28468">
        <ele>2423.1</ele>
        <time>2017-03-21T12:05:20Z</time>
      </trkpt>
      <trkpt lat="42.82338" lon="-0.28466">
        <ele>2423.1</ele>
        <time>2017-03-21T12:05:37Z</time>
      </trkpt>
      <trkpt lat="42.82339" lon="-0.28466">
        <ele>2422.2</ele>
        <time>2017-03-21T12:05:40Z</time>
      </trkpt>
      <trkpt lat="42.8234" lon="-0.28466">
        <ele>2422.7</ele>
        <time>2017-03-21T12:05:54Z</time>
      </trkpt>
      <trkpt lat="42.82338" lon="-0.28464">
        <ele>2423.1</ele>
        <time>2017-03-21T12:06:32Z</time>
      </trkpt>
      <trkpt lat="42.82336" lon="-0.28464">
        <ele>2424.1</ele>
        <time>2017-03-21T12:07:08Z</time>
      </trkpt>
      <trkpt lat="42.8234" lon="-0.28466">
        <ele>2423.1</ele>
        <time>2017-03-21T12:07:31Z</time>
      </trkpt>
      <trkpt lat="42.82339" lon="-0.28466">
        <ele>2424.6</ele>
        <time>2017-03-21T12:07:50Z</time>
      </trkpt>
      <trkpt lat="42.8234" lon="-0.28465">
        <ele>2424.6</ele>
        <time>2017-03-21T12:08:12Z</time>
      </trkpt>
      <trkpt lat="42.82349" lon="-0.2846">
        <ele>2428</ele>
        <time>2017-03-21T12:08:26Z</time>
      </trkpt>
      <trkpt lat="42.82355" lon="-0.28456">
        <ele>2430.4</ele>
        <time>2017-03-21T12:08:41Z</time>
      </trkpt>
      <trkpt lat="42.82361" lon="-0.28452">
        <ele>2433.2</ele>
        <time>2017-03-21T12:08:56Z</time>
      </trkpt>
      <trkpt lat="42.8237" lon="-0.28451">
        <ele>2436.6</ele>
        <time>2017-03-21T12:09:11Z</time>
      </trkpt>
      <trkpt lat="42.82381" lon="-0.28455">
        <ele>2438</ele>
        <time>2017-03-21T12:09:26Z</time>
      </trkpt>
      <trkpt lat="42.82388" lon="-0.28457">
        <ele>2441.4</ele>
        <time>2017-03-21T12:09:41Z</time>
      </trkpt>
      <trkpt lat="42.82396" lon="-0.28461">
        <ele>2444.3</ele>
        <time>2017-03-21T12:09:56Z</time>
      </trkpt>
      <trkpt lat="42.82405" lon="-0.28464">
        <ele>2446.2</ele>
        <time>2017-03-21T12:10:13Z</time>
      </trkpt>
      <trkpt lat="42.82414" lon="-0.28468">
        <ele>2449.1</ele>
        <time>2017-03-21T12:10:29Z</time>
      </trkpt>
      <trkpt lat="42.82423" lon="-0.28472">
        <ele>2449.6</ele>
        <time>2017-03-21T12:10:41Z</time>
      </trkpt>
      <trkpt lat="42.82439" lon="-0.28474">
        <ele>2450.5</ele>
        <time>2017-03-21T12:10:59Z</time>
      </trkpt>
      <trkpt lat="42.82454" lon="-0.28473">
        <ele>2453.4</ele>
        <time>2017-03-21T12:11:17Z</time>
      </trkpt>
      <trkpt lat="42.82467" lon="-0.28471">
        <ele>2456.3</ele>
        <time>2017-03-21T12:11:35Z</time>
      </trkpt>
      <trkpt lat="42.82475" lon="-0.2847">
        <ele>2459.2</ele>
        <time>2017-03-21T12:11:50Z</time>
      </trkpt>
      <trkpt lat="42.82487" lon="-0.28468">
        <ele>2459.7</ele>
        <time>2017-03-21T12:12:06Z</time>
      </trkpt>
      <trkpt lat="42.82488" lon="-0.28467">
        <ele>2461.1</ele>
        <time>2017-03-21T12:12:09Z</time>
      </trkpt>
      <trkpt lat="42.82497" lon="-0.28464">
        <ele>2463.5</ele>
        <time>2017-03-21T12:12:25Z</time>
      </trkpt>
      <trkpt lat="42.82504" lon="-0.28461">
        <ele>2466.4</ele>
        <time>2017-03-21T12:12:41Z</time>
      </trkpt>
      <trkpt lat="42.82515" lon="-0.2846">
        <ele>2468.3</ele>
        <time>2017-03-21T12:12:57Z</time>
      </trkpt>
      <trkpt lat="42.82523" lon="-0.2846">
        <ele>2471.7</ele>
        <time>2017-03-21T12:13:13Z</time>
      </trkpt>
      <trkpt lat="42.82526" lon="-0.28471">
        <ele>2474.6</ele>
        <time>2017-03-21T12:13:31Z</time>
      </trkpt>
      <trkpt lat="42.82534" lon="-0.28472">
        <ele>2477</ele>
        <time>2017-03-21T12:13:47Z</time>
      </trkpt>
      <trkpt lat="42.82541" lon="-0.28466">
        <ele>2479.4</ele>
        <time>2017-03-21T12:14:04Z</time>
      </trkpt>
      <trkpt lat="42.82545" lon="-0.2846">
        <ele>2482.3</ele>
        <time>2017-03-21T12:14:19Z</time>
      </trkpt>
      <trkpt lat="42.8255" lon="-0.28455">
        <ele>2484.7</ele>
        <time>2017-03-21T12:14:32Z</time>
      </trkpt>
      <trkpt lat="42.82557" lon="-0.2845">
        <ele>2487.6</ele>
        <time>2017-03-21T12:14:46Z</time>
      </trkpt>
      <trkpt lat="42.82562" lon="-0.28445">
        <ele>2489.5</ele>
        <time>2017-03-21T12:15:03Z</time>
      </trkpt>
      <trkpt lat="42.82566" lon="-0.28438">
        <ele>2491.9</ele>
        <time>2017-03-21T12:15:17Z</time>
      </trkpt>
      <trkpt lat="42.8257" lon="-0.2843">
        <ele>2493.8</ele>
        <time>2017-03-21T12:15:34Z</time>
      </trkpt>
      <trkpt lat="42.82576" lon="-0.28427">
        <ele>2497.2</ele>
        <time>2017-03-21T12:15:52Z</time>
      </trkpt>
      <trkpt lat="42.82587" lon="-0.28413">
        <ele>2502.5</ele>
        <time>2017-03-21T12:16:28Z</time>
      </trkpt>
      <trkpt lat="42.82592" lon="-0.28406">
        <ele>2504.4</ele>
        <time>2017-03-21T12:16:43Z</time>
      </trkpt>
      <trkpt lat="42.826" lon="-0.28402">
        <ele>2506.3</ele>
        <time>2017-03-21T12:17:00Z</time>
      </trkpt>
      <trkpt lat="42.82601" lon="-0.28414">
        <ele>2508.2</ele>
        <time>2017-03-21T12:17:16Z</time>
      </trkpt>
      <trkpt lat="42.82605" lon="-0.28428">
        <ele>2510.6</ele>
        <time>2017-03-21T12:17:42Z</time>
      </trkpt>
      <trkpt lat="42.82605" lon="-0.28435">
        <ele>2514</ele>
        <time>2017-03-21T12:18:01Z</time>
      </trkpt>
      <trkpt lat="42.82614" lon="-0.28426">
        <ele>2517.4</ele>
        <time>2017-03-21T12:18:29Z</time>
      </trkpt>
      <trkpt lat="42.82617" lon="-0.28433">
        <ele>2519.8</ele>
        <time>2017-03-21T12:18:40Z</time>
      </trkpt>
      <trkpt lat="42.82617" lon="-0.28436">
        <ele>2520.7</ele>
        <time>2017-03-21T12:18:53Z</time>
      </trkpt>
      <trkpt lat="42.82624" lon="-0.28431">
        <ele>2522.6</ele>
        <time>2017-03-21T12:19:07Z</time>
      </trkpt>
      <trkpt lat="42.82626" lon="-0.28425">
        <ele>2524.6</ele>
        <time>2017-03-21T12:19:23Z</time>
      </trkpt>
      <trkpt lat="42.8263" lon="-0.28419">
        <ele>2528.4</ele>
        <time>2017-03-21T12:19:34Z</time>
      </trkpt>
      <trkpt lat="42.82639" lon="-0.28422">
        <ele>2529.9</ele>
        <time>2017-03-21T12:19:46Z</time>
      </trkpt>
      <trkpt lat="42.82642" lon="-0.28427">
        <ele>2531.8</ele>
        <time>2017-03-21T12:19:56Z</time>
      </trkpt>
      <trkpt lat="42.82646" lon="-0.28425">
        <ele>2533.7</ele>
        <time>2017-03-21T12:20:12Z</time>
      </trkpt>
      <trkpt lat="42.82648" lon="-0.28421">
        <ele>2536.6</ele>
        <time>2017-03-21T12:20:23Z</time>
      </trkpt>
      <trkpt lat="42.82649" lon="-0.28422">
        <ele>2536.6</ele>
        <time>2017-03-21T12:20:24Z</time>
      </trkpt>
      <trkpt lat="42.8266" lon="-0.28428">
        <ele>2538</ele>
        <time>2017-03-21T12:20:41Z</time>
      </trkpt>
      <trkpt lat="42.82665" lon="-0.28432">
        <ele>2541.4</ele>
        <time>2017-03-21T12:20:56Z</time>
      </trkpt>
      <trkpt lat="42.82667" lon="-0.28432">
        <ele>2544.3</ele>
        <time>2017-03-21T12:21:12Z</time>
      </trkpt>
      <trkpt lat="42.82673" lon="-0.28431">
        <ele>2547.6</ele>
        <time>2017-03-21T12:21:27Z</time>
      </trkpt>
      <trkpt lat="42.82674" lon="-0.28431">
        <ele>2547.6</ele>
        <time>2017-03-21T12:21:28Z</time>
      </trkpt>
      <trkpt lat="42.82684" lon="-0.28437">
        <ele>2551</ele>
        <time>2017-03-21T12:21:47Z</time>
      </trkpt>
      <trkpt lat="42.82693" lon="-0.28445">
        <ele>2553.4</ele>
        <time>2017-03-21T12:22:06Z</time>
      </trkpt>
      <trkpt lat="42.82707" lon="-0.28459">
        <ele>2559.2</ele>
        <time>2017-03-21T12:22:39Z</time>
      </trkpt>
      <trkpt lat="42.82705" lon="-0.28472">
        <ele>2561.1</ele>
        <time>2017-03-21T12:22:56Z</time>
      </trkpt>
      <trkpt lat="42.82696" lon="-0.28481">
        <ele>2563</ele>
        <time>2017-03-21T12:23:10Z</time>
      </trkpt>
      <trkpt lat="42.82691" lon="-0.28492">
        <ele>2564.9</ele>
        <time>2017-03-21T12:23:28Z</time>
      </trkpt>
      <trkpt lat="42.82692" lon="-0.28495">
        <ele>2564</ele>
        <time>2017-03-21T12:23:45Z</time>
      </trkpt>
      <trkpt lat="42.82693" lon="-0.28495">
        <ele>2564.5</ele>
        <time>2017-03-21T12:24:23Z</time>
      </trkpt>
      <trkpt lat="42.82695" lon="-0.28496">
        <ele>2565.9</ele>
        <time>2017-03-21T12:24:43Z</time>
      </trkpt>
      <trkpt lat="42.82696" lon="-0.28503">
        <ele>2567.8</ele>
        <time>2017-03-21T12:25:09Z</time>
      </trkpt>
      <trkpt lat="42.82703" lon="-0.28508">
        <ele>2570.7</ele>
        <time>2017-03-21T12:25:25Z</time>
      </trkpt>
      <trkpt lat="42.82709" lon="-0.28508">
        <ele>2573.6</ele>
        <time>2017-03-21T12:25:38Z</time>
      </trkpt>
      <trkpt lat="42.82716" lon="-0.2851">
        <ele>2575.5</ele>
        <time>2017-03-21T12:25:53Z</time>
      </trkpt>
      <trkpt lat="42.82723" lon="-0.28513">
        <ele>2577.4</ele>
        <time>2017-03-21T12:26:12Z</time>
      </trkpt>
      <trkpt lat="42.82731" lon="-0.28516">
        <ele>2580.8</ele>
        <time>2017-03-21T12:26:31Z</time>
      </trkpt>
      <trkpt lat="42.82738" lon="-0.2852">
        <ele>2583.7</ele>
        <time>2017-03-21T12:26:49Z</time>
      </trkpt>
      <trkpt lat="42.82747" lon="-0.28526">
        <ele>2587</ele>
        <time>2017-03-21T12:27:07Z</time>
      </trkpt>
      <trkpt lat="42.82759" lon="-0.28535">
        <ele>2591.9</ele>
        <time>2017-03-21T12:27:39Z</time>
      </trkpt>
      <trkpt lat="42.82766" lon="-0.28542">
        <ele>2595.2</ele>
        <time>2017-03-21T12:27:59Z</time>
      </trkpt>
      <trkpt lat="42.82776" lon="-0.28548">
        <ele>2599.5</ele>
        <time>2017-03-21T12:28:23Z</time>
      </trkpt>
      <trkpt lat="42.82791" lon="-0.28562">
        <ele>2602.9</ele>
        <time>2017-03-21T12:29:00Z</time>
      </trkpt>
      <trkpt lat="42.82799" lon="-0.28567">
        <ele>2603.4</ele>
        <time>2017-03-21T12:29:20Z</time>
      </trkpt>
      <trkpt lat="42.82807" lon="-0.28571">
        <ele>2605.8</ele>
        <time>2017-03-21T12:29:40Z</time>
      </trkpt>
      <trkpt lat="42.82814" lon="-0.28574">
        <ele>2608.2</ele>
        <time>2017-03-21T12:29:58Z</time>
      </trkpt>
      <trkpt lat="42.82821" lon="-0.28578">
        <ele>2611.1</ele>
        <time>2017-03-21T12:30:17Z</time>
      </trkpt>
      <trkpt lat="42.82826" lon="-0.28577">
        <ele>2613</ele>
        <time>2017-03-21T12:30:29Z</time>
      </trkpt>
      <trkpt lat="42.82834" lon="-0.28577">
        <ele>2614.4</ele>
        <time>2017-03-21T12:30:46Z</time>
      </trkpt>
      <trkpt lat="42.82836" lon="-0.28578">
        <ele>2615.9</ele>
        <time>2017-03-21T12:31:02Z</time>
      </trkpt>
      <trkpt lat="42.82834" lon="-0.28582">
        <ele>2617.3</ele>
        <time>2017-03-21T12:31:15Z</time>
      </trkpt>
      <trkpt lat="42.82833" lon="-0.28589">
        <ele>2616.9</ele>
        <time>2017-03-21T12:31:46Z</time>
      </trkpt>
      <trkpt lat="42.82824" lon="-0.28598">
        <ele>2620.2</ele>
        <time>2017-03-21T12:32:08Z</time>
      </trkpt>
      <trkpt lat="42.82809" lon="-0.28608">
        <ele>2626</ele>
        <time>2017-03-21T12:32:45Z</time>
      </trkpt>
      <trkpt lat="42.82801" lon="-0.28614">
        <ele>2627.9</ele>
        <time>2017-03-21T12:33:02Z</time>
      </trkpt>
      <trkpt lat="42.82801" lon="-0.28617">
        <ele>2629.8</ele>
        <time>2017-03-21T12:33:22Z</time>
      </trkpt>
      <trkpt lat="42.82806" lon="-0.28621">
        <ele>2633.2</ele>
        <time>2017-03-21T12:33:43Z</time>
      </trkpt>
      <trkpt lat="42.82814" lon="-0.28624">
        <ele>2636.1</ele>
        <time>2017-03-21T12:34:05Z</time>
      </trkpt>
      <trkpt lat="42.82824" lon="-0.28625">
        <ele>2638.5</ele>
        <time>2017-03-21T12:34:23Z</time>
      </trkpt>
      <trkpt lat="42.82836" lon="-0.28627">
        <ele>2641.4</ele>
        <time>2017-03-21T12:34:44Z</time>
      </trkpt>
      <trkpt lat="42.82844" lon="-0.28629">
        <ele>2642.8</ele>
        <time>2017-03-21T12:35:01Z</time>
      </trkpt>
      <trkpt lat="42.82854" lon="-0.28627">
        <ele>2645.7</ele>
        <time>2017-03-21T12:35:22Z</time>
      </trkpt>
      <trkpt lat="42.82859" lon="-0.28624">
        <ele>2648.6</ele>
        <time>2017-03-21T12:35:38Z</time>
      </trkpt>
      <trkpt lat="42.8287" lon="-0.28621">
        <ele>2651.9</ele>
        <time>2017-03-21T12:36:02Z</time>
      </trkpt>
      <trkpt lat="42.82887" lon="-0.28609">
        <ele>2656.7</ele>
        <time>2017-03-21T12:36:40Z</time>
      </trkpt>
      <trkpt lat="42.82897" lon="-0.28604">
        <ele>2659.6</ele>
        <time>2017-03-21T12:36:59Z</time>
      </trkpt>
      <trkpt lat="42.82902" lon="-0.28602">
        <ele>2661.6</ele>
        <time>2017-03-21T12:37:15Z</time>
      </trkpt>
      <trkpt lat="42.82906" lon="-0.28604">
        <ele>2663</ele>
        <time>2017-03-21T12:37:31Z</time>
      </trkpt>
      <trkpt lat="42.82913" lon="-0.28601">
        <ele>2665.9</ele>
        <time>2017-03-21T12:37:46Z</time>
      </trkpt>
      <trkpt lat="42.82922" lon="-0.28595">
        <ele>2669.2</ele>
        <time>2017-03-21T12:38:06Z</time>
      </trkpt>
      <trkpt lat="42.82933" lon="-0.28593">
        <ele>2670.7</ele>
        <time>2017-03-21T12:38:23Z</time>
      </trkpt>
      <trkpt lat="42.82946" lon="-0.28596">
        <ele>2673.1</ele>
        <time>2017-03-21T12:38:41Z</time>
      </trkpt>
      <trkpt lat="42.82955" lon="-0.28596">
        <ele>2674.5</ele>
        <time>2017-03-21T12:38:57Z</time>
      </trkpt>
      <trkpt lat="42.82965" lon="-0.28595">
        <ele>2676</ele>
        <time>2017-03-21T12:39:13Z</time>
      </trkpt>
      <trkpt lat="42.82974" lon="-0.28592">
        <ele>2679.8</ele>
        <time>2017-03-21T12:39:30Z</time>
      </trkpt>
      <trkpt lat="42.8298" lon="-0.28592">
        <ele>2682.7</ele>
        <time>2017-03-21T12:39:44Z</time>
      </trkpt>
      <trkpt lat="42.82989" lon="-0.2859">
        <ele>2683.7</ele>
        <time>2017-03-21T12:40:01Z</time>
      </trkpt>
      <trkpt lat="42.82999" lon="-0.2859">
        <ele>2686.1</ele>
        <time>2017-03-21T12:40:20Z</time>
      </trkpt>
      <trkpt lat="42.83006" lon="-0.28586">
        <ele>2688.9</ele>
        <time>2017-03-21T12:40:36Z</time>
      </trkpt>
      <trkpt lat="42.83015" lon="-0.28583">
        <ele>2689.9</ele>
        <time>2017-03-21T12:40:53Z</time>
      </trkpt>
      <trkpt lat="42.83026" lon="-0.28578">
        <ele>2692.3</ele>
        <time>2017-03-21T12:41:11Z</time>
      </trkpt>
      <trkpt lat="42.83038" lon="-0.28574">
        <ele>2692.8</ele>
        <time>2017-03-21T12:41:28Z</time>
      </trkpt>
      <trkpt lat="42.83048" lon="-0.28568">
        <ele>2695.2</ele>
        <time>2017-03-21T12:41:45Z</time>
      </trkpt>
      <trkpt lat="42.83056" lon="-0.28563">
        <ele>2697.6</ele>
        <time>2017-03-21T12:42:03Z</time>
      </trkpt>
      <trkpt lat="42.83061" lon="-0.2856">
        <ele>2700.5</ele>
        <time>2017-03-21T12:42:14Z</time>
      </trkpt>
      <trkpt lat="42.83071" lon="-0.28559">
        <ele>2702.4</ele>
        <time>2017-03-21T12:42:31Z</time>
      </trkpt>
      <trkpt lat="42.8308" lon="-0.28559">
        <ele>2704.3</ele>
        <time>2017-03-21T12:42:47Z</time>
      </trkpt>
      <trkpt lat="42.83082" lon="-0.28559">
        <ele>2707.2</ele>
        <time>2017-03-21T12:42:51Z</time>
      </trkpt>
      <trkpt lat="42.83083" lon="-0.28559">
        <ele>2703.4</ele>
        <time>2017-03-21T12:42:53Z</time>
      </trkpt>
      <trkpt lat="42.83084" lon="-0.28559">
        <ele>2703.4</ele>
        <time>2017-03-21T12:42:54Z</time>
      </trkpt>
      <trkpt lat="42.83093" lon="-0.28558">
        <ele>2704.8</ele>
        <time>2017-03-21T12:43:10Z</time>
      </trkpt>
      <trkpt lat="42.83099" lon="-0.28557">
        <ele>2706.3</ele>
        <time>2017-03-21T12:43:22Z</time>
      </trkpt>
      <trkpt lat="42.83108" lon="-0.28556">
        <ele>2709.6</ele>
        <time>2017-03-21T12:43:40Z</time>
      </trkpt>
      <trkpt lat="42.83115" lon="-0.28557">
        <ele>2712.5</ele>
        <time>2017-03-21T12:43:54Z</time>
      </trkpt>
      <trkpt lat="42.83115" lon="-0.28557">
        <ele>2713</ele>
        <time>2017-03-21T12:43:55Z</time>
      </trkpt>
      <trkpt lat="42.83125" lon="-0.2856">
        <ele>2713.5</ele>
        <time>2017-03-21T12:44:11Z</time>
      </trkpt>
      <trkpt lat="42.83135" lon="-0.2856">
        <ele>2715.4</ele>
        <time>2017-03-21T12:44:29Z</time>
      </trkpt>
      <trkpt lat="42.83146" lon="-0.2856">
        <ele>2717.3</ele>
        <time>2017-03-21T12:44:47Z</time>
      </trkpt>
      <trkpt lat="42.83154" lon="-0.28557">
        <ele>2720.2</ele>
        <time>2017-03-21T12:45:05Z</time>
      </trkpt>
      <trkpt lat="42.83172" lon="-0.28558">
        <ele>2725.5</ele>
        <time>2017-03-21T12:45:45Z</time>
      </trkpt>
      <trkpt lat="42.83177" lon="-0.28559">
        <ele>2727.9</ele>
        <time>2017-03-21T12:45:57Z</time>
      </trkpt>
      <trkpt lat="42.83183" lon="-0.28566">
        <ele>2730.8</ele>
        <time>2017-03-21T12:46:11Z</time>
      </trkpt>
      <trkpt lat="42.83187" lon="-0.28572">
        <ele>2734.1</ele>
        <time>2017-03-21T12:46:22Z</time>
      </trkpt>
      <trkpt lat="42.83194" lon="-0.28579">
        <ele>2735.1</ele>
        <time>2017-03-21T12:46:37Z</time>
      </trkpt>
      <trkpt lat="42.83198" lon="-0.28582">
        <ele>2736.5</ele>
        <time>2017-03-21T12:46:48Z</time>
      </trkpt>
      <trkpt lat="42.83202" lon="-0.28585">
        <ele>2736.1</ele>
        <time>2017-03-21T12:47:02Z</time>
      </trkpt>
      <trkpt lat="42.83202" lon="-0.28586">
        <ele>2734.1</ele>
        <time>2017-03-21T12:47:29Z</time>
      </trkpt>
      <trkpt lat="42.83202" lon="-0.28585">
        <ele>2734.6</ele>
        <time>2017-03-21T12:48:09Z</time>
      </trkpt>
      <trkpt lat="42.83201" lon="-0.28586">
        <ele>2735.1</ele>
        <time>2017-03-21T12:48:12Z</time>
      </trkpt>
      <trkpt lat="42.83202" lon="-0.28586">
        <ele>2735.6</ele>
        <time>2017-03-21T12:48:14Z</time>
      </trkpt>
      <trkpt lat="42.83205" lon="-0.28584">
        <ele>2736.1</ele>
        <time>2017-03-21T12:48:30Z</time>
      </trkpt>
      <trkpt lat="42.83219" lon="-0.28591">
        <ele>2737</ele>
        <time>2017-03-21T12:48:48Z</time>
      </trkpt>
      <trkpt lat="42.83229" lon="-0.28598">
        <ele>2739.9</ele>
        <time>2017-03-21T12:49:06Z</time>
      </trkpt>
      <trkpt lat="42.83239" lon="-0.28603">
        <ele>2740.9</ele>
        <time>2017-03-21T12:49:27Z</time>
      </trkpt>
      <trkpt lat="42.83246" lon="-0.28606">
        <ele>2743.7</ele>
        <time>2017-03-21T12:49:43Z</time>
      </trkpt>
      <trkpt lat="42.83258" lon="-0.28609">
        <ele>2745.2</ele>
        <time>2017-03-21T12:50:02Z</time>
      </trkpt>
      <trkpt lat="42.8327" lon="-0.2861">
        <ele>2747.6</ele>
        <time>2017-03-21T12:50:22Z</time>
      </trkpt>
      <trkpt lat="42.83278" lon="-0.28607">
        <ele>2751.4</ele>
        <time>2017-03-21T12:50:40Z</time>
      </trkpt>
      <trkpt lat="42.83286" lon="-0.28608">
        <ele>2753.8</ele>
        <time>2017-03-21T12:50:57Z</time>
      </trkpt>
      <trkpt lat="42.83297" lon="-0.28604">
        <ele>2757.7</ele>
        <time>2017-03-21T12:51:28Z</time>
      </trkpt>
      <trkpt lat="42.83304" lon="-0.28599">
        <ele>2760.1</ele>
        <time>2017-03-21T12:51:46Z</time>
      </trkpt>
      <trkpt lat="42.8331" lon="-0.28596">
        <ele>2763.5</ele>
        <time>2017-03-21T12:52:02Z</time>
      </trkpt>
      <trkpt lat="42.83317" lon="-0.28591">
        <ele>2766.3</ele>
        <time>2017-03-21T12:52:20Z</time>
      </trkpt>
      <trkpt lat="42.83325" lon="-0.28589">
        <ele>2768.3</ele>
        <time>2017-03-21T12:52:37Z</time>
      </trkpt>
      <trkpt lat="42.8333" lon="-0.28586">
        <ele>2770.2</ele>
        <time>2017-03-21T12:52:54Z</time>
      </trkpt>
      <trkpt lat="42.83341" lon="-0.28588">
        <ele>2773.1</ele>
        <time>2017-03-21T12:53:14Z</time>
      </trkpt>
      <trkpt lat="42.83351" lon="-0.28591">
        <ele>2775.5</ele>
        <time>2017-03-21T12:53:29Z</time>
      </trkpt>
      <trkpt lat="42.83352" lon="-0.28592">
        <ele>2776.9</ele>
        <time>2017-03-21T12:53:34Z</time>
      </trkpt>
      <trkpt lat="42.83358" lon="-0.28592">
        <ele>2778.8</ele>
        <time>2017-03-21T12:53:48Z</time>
      </trkpt>
      <trkpt lat="42.8336" lon="-0.28589">
        <ele>2780.3</ele>
        <time>2017-03-21T12:53:53Z</time>
      </trkpt>
      <trkpt lat="42.83366" lon="-0.28589">
        <ele>2782.2</ele>
        <time>2017-03-21T12:54:07Z</time>
      </trkpt>
      <trkpt lat="42.83376" lon="-0.28595">
        <ele>2784.1</ele>
        <time>2017-03-21T12:54:24Z</time>
      </trkpt>
      <trkpt lat="42.83382" lon="-0.28601">
        <ele>2786</ele>
        <time>2017-03-21T12:54:46Z</time>
      </trkpt>
      <trkpt lat="42.83384" lon="-0.28606">
        <ele>2789.4</ele>
        <time>2017-03-21T12:54:56Z</time>
      </trkpt>
      <trkpt lat="42.83384" lon="-0.28617">
        <ele>2789.4</ele>
        <time>2017-03-21T12:55:12Z</time>
      </trkpt>
      <trkpt lat="42.83383" lon="-0.28627">
        <ele>2791.3</ele>
        <time>2017-03-21T12:55:32Z</time>
      </trkpt>
      <trkpt lat="42.83378" lon="-0.28645">
        <ele>2796.6</ele>
        <time>2017-03-21T12:56:08Z</time>
      </trkpt>
      <trkpt lat="42.83375" lon="-0.28655">
        <ele>2798.5</ele>
        <time>2017-03-21T12:56:26Z</time>
      </trkpt>
      <trkpt lat="42.83377" lon="-0.28658">
        <ele>2800.9</ele>
        <time>2017-03-21T12:56:38Z</time>
      </trkpt>
      <trkpt lat="42.83384" lon="-0.2866">
        <ele>2803.8</ele>
        <time>2017-03-21T12:56:57Z</time>
      </trkpt>
      <trkpt lat="42.83391" lon="-0.28661">
        <ele>2806.7</ele>
        <time>2017-03-21T12:57:14Z</time>
      </trkpt>
      <trkpt lat="42.83392" lon="-0.28671">
        <ele>2808.6</ele>
        <time>2017-03-21T12:57:31Z</time>
      </trkpt>
      <trkpt lat="42.83396" lon="-0.28669">
        <ele>2809.6</ele>
        <time>2017-03-21T12:57:45Z</time>
      </trkpt>
      <trkpt lat="42.834" lon="-0.28668">
        <ele>2812.5</ele>
        <time>2017-03-21T12:58:03Z</time>
      </trkpt>
      <trkpt lat="42.83407" lon="-0.28671">
        <ele>2815.4</ele>
        <time>2017-03-21T12:58:19Z</time>
      </trkpt>
      <trkpt lat="42.83416" lon="-0.2868">
        <ele>2816.8</ele>
        <time>2017-03-21T12:58:41Z</time>
      </trkpt>
      <trkpt lat="42.83423" lon="-0.28686">
        <ele>2818.2</ele>
        <time>2017-03-21T12:58:57Z</time>
      </trkpt>
      <trkpt lat="42.83428" lon="-0.28696">
        <ele>2820.7</ele>
        <time>2017-03-21T12:59:21Z</time>
      </trkpt>
      <trkpt lat="42.83436" lon="-0.28706">
        <ele>2823.5</ele>
        <time>2017-03-21T12:59:42Z</time>
      </trkpt>
      <trkpt lat="42.8344" lon="-0.28714">
        <ele>2826.9</ele>
        <time>2017-03-21T12:59:59Z</time>
      </trkpt>
      <trkpt lat="42.83453" lon="-0.28746">
        <ele>2830.7</ele>
        <time>2017-03-21T13:00:57Z</time>
      </trkpt>
      <trkpt lat="42.83454" lon="-0.28747">
        <ele>2831.7</ele>
        <time>2017-03-21T13:00:59Z</time>
      </trkpt>
      <trkpt lat="42.83461" lon="-0.28775">
        <ele>2836</ele>
        <time>2017-03-21T13:01:45Z</time>
      </trkpt>
      <trkpt lat="42.83465" lon="-0.28787">
        <ele>2838.9</ele>
        <time>2017-03-21T13:02:10Z</time>
      </trkpt>
      <trkpt lat="42.83466" lon="-0.28792">
        <ele>2839.4</ele>
        <time>2017-03-21T13:02:35Z</time>
      </trkpt>
      <trkpt lat="42.8347" lon="-0.28799">
        <ele>2840.4</ele>
        <time>2017-03-21T13:02:59Z</time>
      </trkpt>
      <trkpt lat="42.8348" lon="-0.28808">
        <ele>2842.8</ele>
        <time>2017-03-21T13:03:16Z</time>
      </trkpt>
      <trkpt lat="42.83487" lon="-0.2882">
        <ele>2843.7</ele>
        <time>2017-03-21T13:03:33Z</time>
      </trkpt>
      <trkpt lat="42.83492" lon="-0.28826">
        <ele>2844.2</ele>
        <time>2017-03-21T13:03:50Z</time>
      </trkpt>
      <trkpt lat="42.83489" lon="-0.28831">
        <ele>2845.2</ele>
        <time>2017-03-21T13:04:18Z</time>
      </trkpt>
      <trkpt lat="42.83495" lon="-0.28824">
        <ele>2846.1</ele>
        <time>2017-03-21T13:04:43Z</time>
      </trkpt>
      <trkpt lat="42.83496" lon="-0.28825">
        <ele>2845.6</ele>
        <time>2017-03-21T13:05:04Z</time>
      </trkpt>
      <trkpt lat="42.83497" lon="-0.28819">
        <ele>2845.2</ele>
        <time>2017-03-21T13:05:23Z</time>
      </trkpt>
      <trkpt lat="42.83497" lon="-0.28823">
        <ele>2844.2</ele>
        <time>2017-03-21T13:05:44Z</time>
      </trkpt>
      <trkpt lat="42.83491" lon="-0.28828">
        <ele>2843.7</ele>
        <time>2017-03-21T13:06:08Z</time>
      </trkpt>
      <trkpt lat="42.83496" lon="-0.28821">
        <ele>2843.7</ele>
        <time>2017-03-21T13:06:36Z</time>
      </trkpt>
      <trkpt lat="42.83489" lon="-0.28833">
        <ele>2844.2</ele>
        <time>2017-03-21T13:06:53Z</time>
      </trkpt>
      <trkpt lat="42.83484" lon="-0.28845">
        <ele>2844.7</ele>
        <time>2017-03-21T13:07:14Z</time>
      </trkpt>
      <trkpt lat="42.83488" lon="-0.28837">
        <ele>2843.7</ele>
        <time>2017-03-21T13:07:31Z</time>
      </trkpt>
      <trkpt lat="42.83487" lon="-0.28836">
        <ele>2843.2</ele>
        <time>2017-03-21T13:08:01Z</time>
      </trkpt>
      <trkpt lat="42.8349" lon="-0.28834">
        <ele>2844.2</ele>
        <time>2017-03-21T13:08:36Z</time>
      </trkpt>
      <trkpt lat="42.83483" lon="-0.2884">
        <ele>2845.2</ele>
        <time>2017-03-21T13:09:18Z</time>
      </trkpt>
      <trkpt lat="42.83483" lon="-0.2884">
        <ele>2843.7</ele>
        <time>2017-03-21T13:09:50Z</time>
      </trkpt>
      <trkpt lat="42.83488" lon="-0.28837">
        <ele>2844.2</ele>
        <time>2017-03-21T13:10:20Z</time>
      </trkpt>
      <trkpt lat="42.83485" lon="-0.28833">
        <ele>2844.2</ele>
        <time>2017-03-21T13:10:50Z</time>
      </trkpt>
      <trkpt lat="42.83488" lon="-0.28826">
        <ele>2839.4</ele>
        <time>2017-03-21T13:11:00Z</time>
      </trkpt>
      <trkpt lat="42.83488" lon="-0.28826">
        <ele>2847.6</ele>
        <time>2017-03-21T13:11:01Z</time>
      </trkpt>
      <trkpt lat="42.8349" lon="-0.28816">
        <ele>2844.2</ele>
        <time>2017-03-21T13:11:28Z</time>
      </trkpt>
      <trkpt lat="42.83485" lon="-0.28821">
        <ele>2843.7</ele>
        <time>2017-03-21T13:12:06Z</time>
      </trkpt>
      <trkpt lat="42.83493" lon="-0.28812">
        <ele>2844.7</ele>
        <time>2017-03-21T13:12:49Z</time>
      </trkpt>
      <trkpt lat="42.83491" lon="-0.28814">
        <ele>2845.2</ele>
        <time>2017-03-21T13:13:28Z</time>
      </trkpt>
      <trkpt lat="42.83491" lon="-0.28814">
        <ele>2845.6</ele>
        <time>2017-03-21T13:14:04Z</time>
      </trkpt>
      <trkpt lat="42.83496" lon="-0.28813">
        <ele>2845.6</ele>
        <time>2017-03-21T13:14:42Z</time>
      </trkpt>
      <trkpt lat="42.83494" lon="-0.28816">
        <ele>2846.6</ele>
        <time>2017-03-21T13:15:23Z</time>
      </trkpt>
      <trkpt lat="42.83494" lon="-0.28818">
        <ele>2846.1</ele>
        <time>2017-03-21T13:15:50Z</time>
      </trkpt>
      <trkpt lat="42.8349" lon="-0.2881">
        <ele>2846.1</ele>
        <time>2017-03-21T13:16:32Z</time>
      </trkpt>
      <trkpt lat="42.83494" lon="-0.28811">
        <ele>2846.1</ele>
        <time>2017-03-21T13:17:08Z</time>
      </trkpt>
      <trkpt lat="42.83489" lon="-0.28811">
        <ele>2846.6</ele>
        <time>2017-03-21T13:17:43Z</time>
      </trkpt>
      <trkpt lat="42.83486" lon="-0.28808">
        <ele>2846.6</ele>
        <time>2017-03-21T13:18:13Z</time>
      </trkpt>
      <trkpt lat="42.83496" lon="-0.28828">
        <ele>2846.1</ele>
        <time>2017-03-21T13:18:56Z</time>
      </trkpt>
      <trkpt lat="42.83492" lon="-0.28828">
        <ele>2847.1</ele>
        <time>2017-03-21T13:19:40Z</time>
      </trkpt>
      <trkpt lat="42.83488" lon="-0.28818">
        <ele>2846.6</ele>
        <time>2017-03-21T13:20:21Z</time>
      </trkpt>
      <trkpt lat="42.83493" lon="-0.28816">
        <ele>2846.6</ele>
        <time>2017-03-21T13:21:06Z</time>
      </trkpt>
      <trkpt lat="42.83492" lon="-0.28824">
        <ele>2847.1</ele>
        <time>2017-03-21T13:21:39Z</time>
      </trkpt>
      <trkpt lat="42.83489" lon="-0.28816">
        <ele>2846.6</ele>
        <time>2017-03-21T13:22:13Z</time>
      </trkpt>
      <trkpt lat="42.83489" lon="-0.28817">
        <ele>2847.1</ele>
        <time>2017-03-21T13:22:51Z</time>
      </trkpt>
      <trkpt lat="42.83491" lon="-0.28822">
        <ele>2846.6</ele>
        <time>2017-03-21T13:23:20Z</time>
      </trkpt>
      <trkpt lat="42.83491" lon="-0.28823">
        <ele>2846.6</ele>
        <time>2017-03-21T13:24:03Z</time>
      </trkpt>
      <trkpt lat="42.83489" lon="-0.28819">
        <ele>2847.1</ele>
        <time>2017-03-21T13:24:32Z</time>
      </trkpt>
      <trkpt lat="42.83493" lon="-0.28816">
        <ele>2847.6</ele>
        <time>2017-03-21T13:25:07Z</time>
      </trkpt>
      <trkpt lat="42.83491" lon="-0.28819">
        <ele>2848</ele>
        <time>2017-03-21T13:25:45Z</time>
      </trkpt>
      <trkpt lat="42.8349" lon="-0.28817">
        <ele>2848.5</ele>
        <time>2017-03-21T13:26:23Z</time>
      </trkpt>
      <trkpt lat="42.83494" lon="-0.28817">
        <ele>2848</ele>
        <time>2017-03-21T13:27:09Z</time>
      </trkpt>
      <trkpt lat="42.83492" lon="-0.2882">
        <ele>2848.5</ele>
        <time>2017-03-21T13:27:38Z</time>
      </trkpt>
      <trkpt lat="42.83492" lon="-0.28819">
        <ele>2849</ele>
        <time>2017-03-21T13:28:14Z</time>
      </trkpt>
      <trkpt lat="42.83492" lon="-0.28818">
        <ele>2849.5</ele>
        <time>2017-03-21T13:28:41Z</time>
      </trkpt>
      <trkpt lat="42.83488" lon="-0.28818">
        <ele>2848.5</ele>
        <time>2017-03-21T13:29:13Z</time>
      </trkpt>
      <trkpt lat="42.83494" lon="-0.28826">
        <ele>2849</ele>
        <time>2017-03-21T13:29:44Z</time>
      </trkpt>
      <trkpt lat="42.83494" lon="-0.28822">
        <ele>2850</ele>
        <time>2017-03-21T13:30:11Z</time>
      </trkpt>
      <trkpt lat="42.83493" lon="-0.28832">
        <ele>2849</ele>
        <time>2017-03-21T13:30:45Z</time>
      </trkpt>
      <trkpt lat="42.8349" lon="-0.28827">
        <ele>2849.5</ele>
        <time>2017-03-21T13:31:09Z</time>
      </trkpt>
      <trkpt lat="42.83494" lon="-0.28828">
        <ele>2849.5</ele>
        <time>2017-03-21T13:31:36Z</time>
      </trkpt>
      <trkpt lat="42.83492" lon="-0.28826">
        <ele>2849</ele>
        <time>2017-03-21T13:32:05Z</time>
      </trkpt>
      <trkpt lat="42.83488" lon="-0.28822">
        <ele>2849.5</ele>
        <time>2017-03-21T13:32:33Z</time>
      </trkpt>
      <trkpt lat="42.83489" lon="-0.28821">
        <ele>2850.9</ele>
        <time>2017-03-21T13:33:07Z</time>
      </trkpt>
      <trkpt lat="42.83491" lon="-0.28822">
        <ele>2849</ele>
        <time>2017-03-21T13:33:44Z</time>
      </trkpt>
      <trkpt lat="42.83488" lon="-0.28828">
        <ele>2848</ele>
        <time>2017-03-21T13:34:19Z</time>
      </trkpt>
      <trkpt lat="42.83495" lon="-0.28825">
        <ele>2849</ele>
        <time>2017-03-21T13:35:07Z</time>
      </trkpt>
      <trkpt lat="42.83491" lon="-0.28823">
        <ele>2848.5</ele>
        <time>2017-03-21T13:35:39Z</time>
      </trkpt>
      <trkpt lat="42.83497" lon="-0.28835">
        <ele>2848</ele>
        <time>2017-03-21T13:36:14Z</time>
      </trkpt>
      <trkpt lat="42.83494" lon="-0.28833">
        <ele>2848.5</ele>
        <time>2017-03-21T13:36:53Z</time>
      </trkpt>
      <trkpt lat="42.83502" lon="-0.28831">
        <ele>2847.1</ele>
        <time>2017-03-21T13:37:30Z</time>
      </trkpt>
      <trkpt lat="42.83506" lon="-0.28833">
        <ele>2847.1</ele>
        <time>2017-03-21T13:38:05Z</time>
      </trkpt>
      <trkpt lat="42.83501" lon="-0.28833">
        <ele>2847.6</ele>
        <time>2017-03-21T13:38:49Z</time>
      </trkpt>
      <trkpt lat="42.83506" lon="-0.28843">
        <ele>2846.6</ele>
        <time>2017-03-21T13:39:24Z</time>
      </trkpt>
      <trkpt lat="42.83499" lon="-0.28834">
        <ele>2847.1</ele>
        <time>2017-03-21T13:40:01Z</time>
      </trkpt>
      <trkpt lat="42.83495" lon="-0.28832">
        <ele>2847.6</ele>
        <time>2017-03-21T13:40:29Z</time>
      </trkpt>
      <trkpt lat="42.83494" lon="-0.28828">
        <ele>2848</ele>
        <time>2017-03-21T13:41:02Z</time>
      </trkpt>
      <trkpt lat="42.83492" lon="-0.28822">
        <ele>2846.6</ele>
        <time>2017-03-21T13:41:45Z</time>
      </trkpt>
      <trkpt lat="42.83496" lon="-0.28831">
        <ele>2846.6</ele>
        <time>2017-03-21T13:42:24Z</time>
      </trkpt>
      <trkpt lat="42.83504" lon="-0.28841">
        <ele>2847.1</ele>
        <time>2017-03-21T13:43:04Z</time>
      </trkpt>
      <trkpt lat="42.83495" lon="-0.28837">
        <ele>2845.6</ele>
        <time>2017-03-21T13:43:35Z</time>
      </trkpt>
      <trkpt lat="42.83499" lon="-0.28836">
        <ele>2844.7</ele>
        <time>2017-03-21T13:44:10Z</time>
      </trkpt>
      <trkpt lat="42.83495" lon="-0.28836">
        <ele>2844.7</ele>
        <time>2017-03-21T13:44:45Z</time>
      </trkpt>
      <trkpt lat="42.83495" lon="-0.28838">
        <ele>2844.7</ele>
        <time>2017-03-21T13:45:18Z</time>
      </trkpt>
      <trkpt lat="42.83494" lon="-0.28824">
        <ele>2845.2</ele>
        <time>2017-03-21T13:46:04Z</time>
      </trkpt>
      <trkpt lat="42.83492" lon="-0.28821">
        <ele>2844.7</ele>
        <time>2017-03-21T13:46:42Z</time>
      </trkpt>
      <trkpt lat="42.83491" lon="-0.28818">
        <ele>2844.2</ele>
        <time>2017-03-21T13:47:17Z</time>
      </trkpt>
      <trkpt lat="42.83495" lon="-0.28821">
        <ele>2845.2</ele>
        <time>2017-03-21T13:47:49Z</time>
      </trkpt>
      <trkpt lat="42.83492" lon="-0.28823">
        <ele>2845.2</ele>
        <time>2017-03-21T13:48:23Z</time>
      </trkpt>
      <trkpt lat="42.8349" lon="-0.2882">
        <ele>2846.1</ele>
        <time>2017-03-21T13:49:02Z</time>
      </trkpt>
      <trkpt lat="42.83493" lon="-0.28825">
        <ele>2845.6</ele>
        <time>2017-03-21T13:49:33Z</time>
      </trkpt>
      <trkpt lat="42.83481" lon="-0.28821">
        <ele>2846.1</ele>
        <time>2017-03-21T13:49:57Z</time>
      </trkpt>
      <trkpt lat="42.8348" lon="-0.28823">
        <ele>2846.1</ele>
        <time>2017-03-21T13:50:19Z</time>
      </trkpt>
      <trkpt lat="42.83491" lon="-0.28815">
        <ele>2846.6</ele>
        <time>2017-03-21T13:50:51Z</time>
      </trkpt>
      <trkpt lat="42.83485" lon="-0.28819">
        <ele>2846.1</ele>
        <time>2017-03-21T13:51:18Z</time>
      </trkpt>
      <trkpt lat="42.83485" lon="-0.28818">
        <ele>2847.1</ele>
        <time>2017-03-21T13:51:55Z</time>
      </trkpt>
      <trkpt lat="42.83487" lon="-0.28823">
        <ele>2846.1</ele>
        <time>2017-03-21T13:52:26Z</time>
      </trkpt>
      <trkpt lat="42.83485" lon="-0.28827">
        <ele>2846.6</ele>
        <time>2017-03-21T13:52:56Z</time>
      </trkpt>
      <trkpt lat="42.83488" lon="-0.28816">
        <ele>2847.1</ele>
        <time>2017-03-21T13:53:23Z</time>
      </trkpt>
      <trkpt lat="42.83488" lon="-0.28819">
        <ele>2848</ele>
        <time>2017-03-21T13:53:56Z</time>
      </trkpt>
      <trkpt lat="42.8348" lon="-0.2885">
        <ele>2847.6</ele>
        <time>2017-03-21T13:54:26Z</time>
      </trkpt>
      <trkpt lat="42.83482" lon="-0.28849">
        <ele>2848</ele>
        <time>2017-03-21T13:54:52Z</time>
      </trkpt>
      <trkpt lat="42.83491" lon="-0.28831">
        <ele>2847.6</ele>
        <time>2017-03-21T13:55:30Z</time>
      </trkpt>
      <trkpt lat="42.83491" lon="-0.28822">
        <ele>2847.6</ele>
        <time>2017-03-21T13:56:05Z</time>
      </trkpt>
      <trkpt lat="42.83492" lon="-0.28814">
        <ele>2847.6</ele>
        <time>2017-03-21T13:56:45Z</time>
      </trkpt>
      <trkpt lat="42.83491" lon="-0.28812">
        <ele>2847.6</ele>
        <time>2017-03-21T13:57:14Z</time>
      </trkpt>
      <trkpt lat="42.83489" lon="-0.2881">
        <ele>2849</ele>
        <time>2017-03-21T13:57:44Z</time>
      </trkpt>
      <trkpt lat="42.83488" lon="-0.28813">
        <ele>2849</ele>
        <time>2017-03-21T13:58:21Z</time>
      </trkpt>
      <trkpt lat="42.83483" lon="-0.28821">
        <ele>2848.5</ele>
        <time>2017-03-21T13:59:03Z</time>
      </trkpt>
      <trkpt lat="42.83483" lon="-0.28814">
        <ele>2848</ele>
        <time>2017-03-21T13:59:44Z</time>
      </trkpt>
      <trkpt lat="42.83482" lon="-0.28815">
        <ele>2848</ele>
        <time>2017-03-21T14:00:22Z</time>
      </trkpt>
      <trkpt lat="42.83488" lon="-0.28828">
        <ele>2847.1</ele>
        <time>2017-03-21T14:01:01Z</time>
      </trkpt>
      <trkpt lat="42.83493" lon="-0.28827">
        <ele>2848.5</ele>
        <time>2017-03-21T14:01:22Z</time>
      </trkpt>
      <trkpt lat="42.83496" lon="-0.28844">
        <ele>2848</ele>
        <time>2017-03-21T14:01:51Z</time>
      </trkpt>
      <trkpt lat="42.81672" lon="-0.28784">
        <ele>2214.5</ele>
        <time>2017-03-22T06:20:51Z</time>
      </trkpt>
      <trkpt lat="42.81672" lon="-0.28784">
        <ele>2214.1</ele>
        <time>2017-03-22T06:20:52Z</time>
      </trkpt>
      <trkpt lat="42.81664" lon="-0.28784">
        <ele>2215</ele>
        <time>2017-03-22T06:21:06Z</time>
      </trkpt>
      <trkpt lat="42.81677" lon="-0.28778">
        <ele>2214.5</ele>
        <time>2017-03-22T06:21:25Z</time>
      </trkpt>
      <trkpt lat="42.81675" lon="-0.28774">
        <ele>2209.7</ele>
        <time>2017-03-22T06:21:30Z</time>
      </trkpt>
      <trkpt lat="42.81673" lon="-0.28776">
        <ele>2205.9</ele>
        <time>2017-03-22T06:21:32Z</time>
      </trkpt>
      <trkpt lat="42.81673" lon="-0.28778">
        <ele>2201.6</ele>
        <time>2017-03-22T06:21:34Z</time>
      </trkpt>
      <trkpt lat="42.81672" lon="-0.2878">
        <ele>2197.7</ele>
        <time>2017-03-22T06:21:36Z</time>
      </trkpt>
      <trkpt lat="42.81672" lon="-0.28779">
        <ele>2193.4</ele>
        <time>2017-03-22T06:21:38Z</time>
      </trkpt>
      <trkpt lat="42.81673" lon="-0.2878">
        <ele>2190.5</ele>
        <time>2017-03-22T06:21:40Z</time>
      </trkpt>
      <trkpt lat="42.81673" lon="-0.28782">
        <ele>2185.7</ele>
        <time>2017-03-22T06:21:43Z</time>
      </trkpt>
      <trkpt lat="42.81673" lon="-0.28782">
        <ele>2180.9</ele>
        <time>2017-03-22T06:21:45Z</time>
      </trkpt>
      <trkpt lat="42.81672" lon="-0.28782">
        <ele>2179</ele>
        <time>2017-03-22T06:21:47Z</time>
      </trkpt>
      <trkpt lat="42.81672" lon="-0.28781">
        <ele>2175.1</ele>
        <time>2017-03-22T06:21:50Z</time>
      </trkpt>
      <trkpt lat="42.81673" lon="-0.28783">
        <ele>2172.2</ele>
        <time>2017-03-22T06:21:53Z</time>
      </trkpt>
      <trkpt lat="42.81673" lon="-0.28782">
        <ele>2168.4</ele>
        <time>2017-03-22T06:21:57Z</time>
      </trkpt>
      <trkpt lat="42.81673" lon="-0.28781">
        <ele>2167</ele>
        <time>2017-03-22T06:21:59Z</time>
      </trkpt>
      <trkpt lat="42.81674" lon="-0.28781">
        <ele>2164.1</ele>
        <time>2017-03-22T06:22:02Z</time>
      </trkpt>
      <trkpt lat="42.81673" lon="-0.28781">
        <ele>2164.1</ele>
        <time>2017-03-22T06:22:03Z</time>
      </trkpt>
      <trkpt lat="42.81672" lon="-0.28781">
        <ele>2160.7</ele>
        <time>2017-03-22T06:22:06Z</time>
      </trkpt>
      <trkpt lat="42.81672" lon="-0.28781">
        <ele>2161.2</ele>
        <time>2017-03-22T06:22:07Z</time>
      </trkpt>
      <trkpt lat="42.81672" lon="-0.28782">
        <ele>2159.3</ele>
        <time>2017-03-22T06:22:10Z</time>
      </trkpt>
      <trkpt lat="42.81672" lon="-0.28784">
        <ele>2141.5</ele>
        <time>2017-03-22T06:22:14Z</time>
      </trkpt>
      <trkpt lat="42.81671" lon="-0.28784">
        <ele>2141.5</ele>
        <time>2017-03-22T06:22:15Z</time>
      </trkpt>
      <trkpt lat="42.81671" lon="-0.28784">
        <ele>2201.1</ele>
        <time>2017-03-22T06:22:18Z</time>
      </trkpt>
      <trkpt lat="42.8167" lon="-0.28783">
        <ele>2200.1</ele>
        <time>2017-03-22T06:22:19Z</time>
      </trkpt>
      <trkpt lat="42.81671" lon="-0.2878">
        <ele>2199.6</ele>
        <time>2017-03-22T06:22:47Z</time>
      </trkpt>
      <trkpt lat="42.81671" lon="-0.28781">
        <ele>2198.2</ele>
        <time>2017-03-22T06:23:31Z</time>
      </trkpt>
    </trkseg>
  </trk>
</gpx>